Terminal Aerodrome Forecast
Issued by NWS

Home | Current Version | Previous Version | Text Only | Print | Product List | Glossary On
Versions: 1 2 3 4 5 6 7 8 9 10 11 12
000
FTUS46 KHNX 211720
TAFFAT
TAF
KFAT 211720Z 2118/2218 30008KT P6SM SKC
      TEMPO 2202/2206 32013G19KT
     FM221200 VRB03KT P6SM SKC=

USA.gov is the U.S. government's official web portal to all federal, state and local government web resources and services.